sensor_id;sensor_type;location;lat;lon;timestamp;pressure;altitude;pressure_sealevel;temperature;humidity
24302;BME280;12421;49.732;20.078;2023-06-01T00:01:22;97144.79;;;6.80;78.06
24302;BME280;12421;49.732;20.078;2023-06-01T00:11:34;97148.38;;;6.70;78.30
24302;BME280;12421;49.732;20.078;2023-06-01T00:21:42;97141.26;;;6.51;77.93
24302;BME280;12421;49.732;20.078;2023-06-01T00:31:45;97140.64;;;6.40;78.16
24302;BME280;12421;49.732;20.078;2023-06-01T00:41:48;97140.61;;;6.37;78.28
24302;BME280;12421;49.732;20.078;2023-06-01T00:51:53;97137.02;;;6.25;78.00
24302;BME280;12421;49.732;20.078;2023-06-01T01:01:58;97141.71;;;6.06;77.98
24302;BME280;12421;49.732;20.078;2023-06-01T01:12:08;97134.70;;;6.02;78.42
24302;BME280;12421;49.732;20.078;2023-06-01T01:32:56;97135.31;;;5.93;78.16
24302;BME280;12421;49.732;20.078;2023-06-01T01:43:00;97132.20;;;5.81;78.28
24302;BME280;12421;49.732;20.078;2023-06-01T01:53:07;97126.66;;;5.70;78.70
24302;BME280;12421;49.732;20.078;2023-06-01T02:03:14;97124.95;;;5.56;78.44
24302;BME280;12421;49.732;20.078;2023-06-01T02:13:19;97116.50;;;5.49;78.71
24302;BME280;12421;49.732;20.078;2023-06-01T02:23:28;97116.27;;;5.44;78.74
24302;BME280;12421;49.732;20.078;2023-06-01T02:33:35;97105.90;;;5.35;78.81
24302;BME280;12421;49.732;20.078;2023-06-01T02:43:39;97094.80;;;5.25;78.97
24302;BME280;12421;49.732;20.078;2023-06-01T02:53:44;97088.27;;;5.18;79.13
24302;BME280;12421;49.732;20.078;2023-06-01T03:03:49;97083.63;;;5.08;79.25
24302;BME280;12421;49.732;20.078;2023-06-01T03:13:56;97082.13;;;5.14;79.74
24302;BME280;12421;49.732;20.078;2023-06-01T03:24:02;97084.13;;;5.21;79.60
24302;BME280;12421;49.732;20.078;2023-06-01T03:34:07;97082.88;;;5.32;79.81
24302;BME280;12421;49.732;20.078;2023-06-01T03:44:11;97078.80;;;5.57;80.33
24302;BME280;12421;49.732;20.078;2023-06-01T03:54:15;97071.65;;;5.90;80.62
24302;BME280;12421;49.732;20.078;2023-06-01T04:04:24;97064.52;;;6.27;80.94
24302;BME280;12421;49.732;20.078;2023-06-01T04:14:29;97057.66;;;6.70;81.42
24302;BME280;12421;49.732;20.078;2023-06-01T04:24:33;97049.90;;;7.25;81.98
24302;BME280;12421;49.732;20.078;2023-06-01T04:34:38;97044.30;;;7.85;82.51
24302;BME280;12421;49.732;20.078;2023-06-01T04:44:43;97040.16;;;8.55;82.65
24302;BME280;12421;49.732;20.078;2023-06-01T04:54:49;97038.74;;;9.23;82.06
24302;BME280;12421;49.732;20.078;2023-06-01T05:04:52;97030.16;;;9.90;81.51
24302;BME280;12421;49.732;20.078;2023-06-01T05:14:55;97020.27;;;10.79;81.74
24302;BME280;12421;49.732;20.078;2023-06-01T05:25:00;97008.62;;;12.69;79.54
24302;BME280;12421;49.732;20.078;2023-06-01T05:35:04;97000.77;;;14.93;74.37
24302;BME280;12421;49.732;20.078;2023-06-01T05:45:10;97002.80;;;16.68;68.46
24302;BME280;12421;49.732;20.078;2023-06-01T05:55:13;97006.75;;;17.23;65.89
24302;BME280;12421;49.732;20.078;2023-06-01T06:05:17;96992.36;;;17.18;64.74
24302;BME280;12421;49.732;20.078;2023-06-01T06:15:20;96986.02;;;17.32;63.54
24302;BME280;12421;49.732;20.078;2023-06-01T06:25:24;96981.23;;;18.28;62.66
24302;BME280;12421;49.732;20.078;2023-06-01T06:35:27;96977.32;;;20.01;59.88
24302;BME280;12421;49.732;20.078;2023-06-01T06:45:32;96965.51;;;21.77;56.34
24302;BME280;12421;49.732;20.078;2023-06-01T06:55:35;96956.66;;;22.94;53.67
24302;BME280;12421;49.732;20.078;2023-06-01T07:05:39;96947.92;;;23.75;51.86
24302;BME280;12421;49.732;20.078;2023-06-01T07:15:43;96942.68;;;24.88;49.54
24302;BME280;12421;49.732;20.078;2023-06-01T07:25:47;96938.45;;;25.97;46.34
24302;BME280;12421;49.732;20.078;2023-06-01T07:35:50;96929.98;;;26.89;44.28
24302;BME280;12421;49.732;20.078;2023-06-01T07:46:22;96918.17;;;27.55;43.11
24302;BME280;12421;49.732;20.078;2023-06-01T07:56:25;96915.81;;;28.27;40.02
24302;BME280;12421;49.732;20.078;2023-06-01T08:06:29;96908.15;;;28.72;36.22
24302;BME280;12421;49.732;20.078;2023-06-01T08:16:38;96889.16;;;28.50;34.98
24302;BME280;12421;49.732;20.078;2023-06-01T08:26:41;96882.83;;;27.69;35.39
24302;BME280;12421;49.732;20.078;2023-06-01T08:36:44;96876.88;;;26.79;35.97
24302;BME280;12421;49.732;20.078;2023-06-01T08:46:48;96870.70;;;26.01;37.35
24302;BME280;12421;49.732;20.078;2023-06-01T08:56:51;96862.23;;;25.86;37.13
24302;BME280;12421;49.732;20.078;2023-06-01T09:06:57;96849.61;;;25.84;37.79
24302;BME280;12421;49.732;20.078;2023-06-01T09:17:01;96844.27;;;25.86;37.21
24302;BME280;12421;49.732;20.078;2023-06-01T09:27:05;96839.14;;;25.85;37.17
24302;BME280;12421;49.732;20.078;2023-06-01T09:37:08;96832.60;;;25.76;36.21
24302;BME280;12421;49.732;20.078;2023-06-01T09:47:12;96824.70;;;25.66;36.83
24302;BME280;12421;49.732;20.078;2023-06-01T09:57:21;96817.51;;;25.63;37.23
24302;BME280;12421;49.732;20.078;2023-06-01T15:05:09;96543.39;;;25.80;38.42
24302;BME280;12421;49.732;20.078;2023-06-01T15:15:14;96539.24;;;25.78;38.41
24302;BME280;12421;49.732;20.078;2023-06-01T15:25:17;96538.59;;;25.70;38.38
24302;BME280;12421;49.732;20.078;2023-06-01T15:35:46;96534.75;;;25.64;38.36
24302;BME280;12421;49.732;20.078;2023-06-01T15:46:15;96527.71;;;25.53;37.78
24302;BME280;12421;49.732;20.078;2023-06-01T15:56:19;96518.46;;;25.45;38.11
24302;BME280;12421;49.732;20.078;2023-06-01T16:06:23;96507.73;;;25.28;38.14
24302;BME280;12421;49.732;20.078;2023-06-01T16:16:26;96501.87;;;25.15;39.28
24302;BME280;12421;49.732;20.078;2023-06-01T16:26:30;96503.48;;;25.06;39.28
24302;BME280;12421;49.732;20.078;2023-06-01T16:36:34;96504.85;;;24.83;38.85
24302;BME280;12421;49.732;20.078;2023-06-01T16:46:39;96499.47;;;24.58;40.96
24302;BME280;12421;49.732;20.078;2023-06-01T16:56:43;96494.70;;;24.18;41.52
24302;BME280;12421;49.732;20.078;2023-06-01T17:06:49;96491.27;;;23.70;44.52
24302;BME280;12421;49.732;20.078;2023-06-01T17:16:53;96493.36;;;23.16;45.08
24302;BME280;12421;49.732;20.078;2023-06-01T17:26:58;96492.24;;;22.61;46.63
24302;BME280;12421;49.732;20.078;2023-06-01T17:37:02;96482.44;;;21.91;47.94
24302;BME280;12421;49.732;20.078;2023-06-01T17:47:06;96478.59;;;21.29;50.03
24302;BME280;12421;49.732;20.078;2023-06-01T17:57:10;96479.13;;;20.53;51.40
24302;BME280;12421;49.732;20.078;2023-06-01T18:07:15;96482.34;;;19.81;52.57
24302;BME280;12421;49.732;20.078;2023-06-01T18:17:23;96488.02;;;19.10;55.06
24302;BME280;12421;49.732;20.078;2023-06-01T18:27:26;96497.04;;;18.40;56.92
24302;BME280;12421;49.732;20.078;2023-06-01T18:37:33;96500.04;;;17.69;58.89
24302;BME280;12421;49.732;20.078;2023-06-01T18:47:41;96501.30;;;17.01;60.53
24302;BME280;12421;49.732;20.078;2023-06-01T18:57:44;96515.36;;;16.31;62.53
24302;BME280;12421;49.732;20.078;2023-06-01T19:07:49;96519.75;;;15.69;64.29
24302;BME280;12421;49.732;20.078;2023-06-01T19:17:53;96527.27;;;15.13;65.60
24302;BME280;12421;49.732;20.078;2023-06-01T19:28:00;96537.44;;;14.59;66.73
24302;BME280;12421;49.732;20.078;2023-06-01T19:38:03;96533.58;;;14.19;67.78
24302;BME280;12421;49.732;20.078;2023-06-01T19:48:20;96537.20;;;13.75;68.81
24302;BME280;12421;49.732;20.078;2023-06-01T19:58:52;96537.70;;;13.34;69.55
24302;BME280;12421;49.732;20.078;2023-06-01T20:09:21;96538.13;;;12.93;70.50
24302;BME280;12421;49.732;20.078;2023-06-01T20:19:26;96547.40;;;12.60;71.18
24302;BME280;12421;49.732;20.078;2023-06-01T20:29:32;96553.65;;;12.35;72.25
24302;BME280;12421;49.732;20.078;2023-06-01T20:39:37;96557.69;;;11.98;72.65
24302;BME280;12421;49.732;20.078;2023-06-01T20:49:40;96561.75;;;11.74;73.72
24302;BME280;12421;49.732;20.078;2023-06-01T21:00:12;96564.83;;;11.51;74.21
24302;BME280;12421;49.732;20.078;2023-06-01T21:10:41;96566.08;;;11.41;74.71
24302;BME280;12421;49.732;20.078;2023-06-01T21:20:44;96569.54;;;11.27;74.71
24302;BME280;12421;49.732;20.078;2023-06-01T21:30:50;96569.02;;;11.08;75.14
24302;BME280;12421;49.732;20.078;2023-06-01T21:40:53;96566.75;;;10.88;75.19
24302;BME280;12421;49.732;20.078;2023-06-01T21:50:58;96573.36;;;10.71;75.71
24302;BME280;12421;49.732;20.078;2023-06-01T22:01:27;96565.27;;;10.51;75.95
24302;BME280;12421;49.732;20.078;2023-06-01T22:11:30;96566.21;;;10.37;76.33
24302;BME280;12421;49.732;20.078;2023-06-01T22:21:35;96567.48;;;10.24;76.36
24302;BME280;12421;49.732;20.078;2023-06-01T22:31:44;96567.60;;;10.15;77.03
24302;BME280;12421;49.732;20.078;2023-06-01T22:41:48;96571.31;;;10.00;77.05
24302;BME280;12421;49.732;20.078;2023-06-01T22:51:54;96569.64;;;9.81;77.06
24302;BME280;12421;49.732;20.078;2023-06-01T23:02:02;96570.54;;;9.67;77.53
24302;BME280;12421;49.732;20.078;2023-06-01T23:12:05;96568.62;;;9.53;77.57
24302;BME280;12421;49.732;20.078;2023-06-01T23:22:10;96561.93;;;9.41;77.91
24302;BME280;12421;49.732;20.078;2023-06-01T23:32:18;96556.27;;;9.31;78.41
24302;BME280;12421;49.732;20.078;2023-06-01T23:42:21;96551.59;;;9.28;78.26
24302;BME280;12421;49.732;20.078;2023-06-01T23:52:25;96550.17;;;9.15;78.11
